sensor_id;sensor_type;location;lat;lon;timestamp;temperature;humidity
3023;DHT22;1521;53.584;9.938;2023-04-25T00:02:03;7.80;99.90
3023;DHT22;1521;53.584;9.938;2023-04-25T00:04:28;7.80;99.90
3023;DHT22;1521;53.584;9.938;2023-04-25T00:06:55;7.60;99.90
3023;DHT22;1521;53.584;9.938;2023-04-25T00:09:21;7.60;99.90
3023;DHT22;1521;53.584;9.938;2023-04-25T00:11:47;7.60;99.90
3023;DHT22;1521;53.584;9.938;2023-04-25T00:14:13;7.50;99.90
3023;DHT22;1521;53.584;9.938;2023-04-25T00:16:38;7.60;99.90
3023;DHT22;1521;53.584;9.938;2023-04-25T00:19:04;7.50;99.90
3023;DHT22;1521;53.584;9.938;2023-04-25T00:21:30;7.50;99.90
3023;DHT22;1521;53.584;9.938;2023-04-25T00:23:57;7.50;99.90
3023;DHT22;1521;53.584;9.938;2023-04-25T00:26:22;7.40;99.90
3023;DHT22;1521;53.584;9.938;2023-04-25T00:28:48;7.40;99.90
3023;DHT22;1521;53.584;9.938;2023-04-25T00:31:14;7.40;99.90
3023;DHT22;1521;53.584;9.938;2023-04-25T00:33:39;7.40;99.90
3023;DHT22;1521;53.584;9.938;2023-04-25T00:36:05;7.40;99.90
3023;DHT22;1521;53.584;9.938;2023-04-25T00:38:31;7.30;99.90
3023;DHT22;1521;53.584;9.938;2023-04-25T00:40:57;7.20;99.90
3023;DHT22;1521;53.584;9.938;2023-04-25T00:43:25;7.20;99.90
3023;DHT22;1521;53.584;9.938;2023-04-25T00:45:52;7.20;99.90
3023;DHT22;1521;53.584;9.938;2023-04-25T00:48:19;7.10;99.90
3023;DHT22;1521;53.584;9.938;2023-04-25T00:50:54;7.10;99.90
3023;DHT22;1521;53.584;9.938;2023-04-25T00:53:25;7.00;99.90
3023;DHT22;1521;53.584;9.938;2023-04-25T00:55:51;7.00;99.90
3023;DHT22;1521;53.584;9.938;2023-04-25T00:58:17;6.90;92.00
3023;DHT22;1521;53.584;9.938;2023-04-25T01:00:45;6.90;87.80
3023;DHT22;1521;53.584;9.938;2023-04-25T01:03:12;7.00;93.30
3023;DHT22;1521;53.584;9.938;2023-04-25T01:05:40;7.00;89.20
3023;DHT22;1521;53.584;9.938;2023-04-25T01:08:07;7.00;74.60
3023;DHT22;1521;53.584;9.938;2023-04-25T01:10:32;7.00;52.10
3023;DHT22;1521;53.584;9.938;2023-04-25T01:12:58;7.00;75.00
3023;DHT22;1521;53.584;9.938;2023-04-25T01:15:23;7.00;1.00
3023;DHT22;1521;53.584;9.938;2023-04-25T01:17:49;7.00;1.00
3023;DHT22;1521;53.584;9.938;2023-04-25T01:20:15;7.00;1.00
3023;DHT22;1521;53.584;9.938;2023-04-25T01:22:41;6.90;1.00
3023;DHT22;1521;53.584;9.938;2023-04-25T01:25:07;7.00;1.00
3023;DHT22;1521;53.584;9.938;2023-04-25T01:27:34;6.90;1.00
3023;DHT22;1521;53.584;9.938;2023-04-25T01:30:01;6.90;1.00
3023;DHT22;1521;53.584;9.938;2023-04-25T01:32:26;6.90;1.00
3023;DHT22;1521;53.584;9.938;2023-04-25T01:34:52;6.90;1.00
3023;DHT22;1521;53.584;9.938;2023-04-25T01:37:18;6.90;1.00
3023;DHT22;1521;53.584;9.938;2023-04-25T01:39:44;6.80;1.00
3023;DHT22;1521;53.584;9.938;2023-04-25T01:42:10;6.90;1.00
3023;DHT22;1521;53.584;9.938;2023-04-25T01:44:35;6.80;1.00
3023;DHT22;1521;53.584;9.938;2023-04-25T01:47:01;6.70;1.00
3023;DHT22;1521;53.584;9.938;2023-04-25T01:49:26;6.70;1.00
3023;DHT22;1521;53.584;9.938;2023-04-25T01:51:52;6.70;1.00
3023;DHT22;1521;53.584;9.938;2023-04-25T01:54:18;6.60;1.00
3023;DHT22;1521;53.584;9.938;2023-04-25T01:56:50;6.70;1.00
3023;DHT22;1521;53.584;9.938;2023-04-25T01:59:17;6.60;1.00
3023;DHT22;1521;53.584;9.938;2023-04-25T02:01:43;6.60;1.00
3023;DHT22;1521;53.584;9.938;2023-04-25T02:04:09;6.50;99.90
3023;DHT22;1521;53.584;9.938;2023-04-25T02:06:34;6.50;99.90
3023;DHT22;1521;53.584;9.938;2023-04-25T02:09:00;6.50;99.90
3023;DHT22;1521;53.584;9.938;2023-04-25T02:11:25;6.60;1.00
3023;DHT22;1521;53.584;9.938;2023-04-25T02:13:51;6.50;1.00
3023;DHT22;1521;53.584;9.938;2023-04-25T02:16:17;6.50;1.00
3023;DHT22;1521;53.584;9.938;2023-04-25T02:18:44;6.50;65.40
3023;DHT22;1521;53.584;9.938;2023-04-25T02:21:10;6.50;1.00
3023;DHT22;1521;53.584;9.938;2023-04-25T02:23:37;6.50;1.00
3023;DHT22;1521;53.584;9.938;2023-04-25T02:26:03;6.40;1.00
3023;DHT22;1521;53.584;9.938;2023-04-25T02:28:28;6.40;1.00
3023;DHT22;1521;53.584;9.938;2023-04-25T02:30:54;6.40;99.90
3023;DHT22;1521;53.584;9.938;2023-04-25T02:33:19;6.40;1.00
3023;DHT22;1521;53.584;9.938;2023-04-25T02:35:46;6.50;99.90
3023;DHT22;1521;53.584;9.938;2023-04-25T02:38:12;6.40;99.90
3023;DHT22;1521;53.584;9.938;2023-04-25T02:40:37;6.40;1.00
3023;DHT22;1521;53.584;9.938;2023-04-25T02:43:03;6.40;99.90
3023;DHT22;1521;53.584;9.938;2023-04-25T02:45:28;6.40;1.00
3023;DHT22;1521;53.584;9.938;2023-04-25T02:47:54;6.30;1.00
3023;DHT22;1521;53.584;9.938;2023-04-25T02:50:19;6.30;49.80
3023;DHT22;1521;53.584;9.938;2023-04-25T02:52:45;6.30;1.00
3023;DHT22;1521;53.584;9.938;2023-04-25T02:55:12;6.30;99.90
3023;DHT22;1521;53.584;9.938;2023-04-25T02:57:37;6.30;1.00
3023;DHT22;1521;53.584;9.938;2023-04-25T03:00:03;6.30;1.00
3023;DHT22;1521;53.584;9.938;2023-04-25T03:02:30;6.30;20.50
3023;DHT22;1521;53.584;9.938;2023-04-25T03:04:56;6.20;99.90
3023;DHT22;1521;53.584;9.938;2023-04-25T03:07:21;6.30;1.00
3023;DHT22;1521;53.584;9.938;2023-04-25T03:09:47;6.20;99.90
3023;DHT22;1521;53.584;9.938;2023-04-25T03:12:12;6.10;99.90
3023;DHT22;1521;53.584;9.938;2023-04-25T03:14:38;6.00;99.90
3023;DHT22;1521;53.584;9.938;2023-04-25T03:17:04;6.00;99.90
3023;DHT22;1521;53.584;9.938;2023-04-25T03:19:29;5.90;99.90
3023;DHT22;1521;53.584;9.938;2023-04-25T03:21:55;5.90;99.90
3023;DHT22;1521;53.584;9.938;2023-04-25T03:24:21;5.90;35.80
3023;DHT22;1521;53.584;9.938;2023-04-25T03:26:47;5.90;18.40
3023;DHT22;1521;53.584;9.938;2023-04-25T03:29:13;5.80;7.80
3023;DHT22;1521;53.584;9.938;2023-04-25T03:31:38;5.70;1.00
3023;DHT22;1521;53.584;9.938;2023-04-25T03:34:04;5.70;1.00
3023;DHT22;1521;53.584;9.938;2023-04-25T03:36:29;5.60;1.00
3023;DHT22;1521;53.584;9.938;2023-04-25T03:38:55;5.60;1.00
3023;DHT22;1521;53.584;9.938;2023-04-25T03:41:20;5.60;1.00
3023;DHT22;1521;53.584;9.938;2023-04-25T03:43:46;5.60;1.00
3023;DHT22;1521;53.584;9.938;2023-04-25T03:46:12;5.60;1.00
3023;DHT22;1521;53.584;9.938;2023-04-25T03:48:37;5.60;1.00
3023;DHT22;1521;53.584;9.938;2023-04-25T03:51:03;5.50;1.00
3023;DHT22;1521;53.584;9.938;2023-04-25T03:53:28;5.50;1.00
3023;DHT22;1521;53.584;9.938;2023-04-25T03:55:54;5.50;1.00
3023;DHT22;1521;53.584;9.938;2023-04-25T03:58:20;5.50;1.00
3023;DHT22;1521;53.584;9.938;2023-04-25T04:00:45;5.50;1.00
3023;DHT22;1521;53.584;9.938;2023-04-25T04:03:11;5.60;1.00
3023;DHT22;1521;53.584;9.938;2023-04-25T04:05:36;5.50;1.00
3023;DHT22;1521;53.584;9.938;2023-04-25T04:08:02;5.60;1.00
3023;DHT22;1521;53.584;9.938;2023-04-25T04:10:28;5.50;1.00
3023;DHT22;1521;53.584;9.938;2023-04-25T04:12:53;5.50;1.00
3023;DHT22;1521;53.584;9.938;2023-04-25T04:15:19;5.40;1.00
3023;DHT22;1521;53.584;9.938;2023-04-25T04:17:45;5.40;1.00
3023;DHT22;1521;53.584;9.938;2023-04-25T04:20:12;5.40;1.00
3023;DHT22;1521;53.584;9.938;2023-04-25T04:22:37;5.40;1.00
3023;DHT22;1521;53.584;9.938;2023-04-25T04:25:03;5.30;1.00
3023;DHT22;1521;53.584;9.938;2023-04-25T04:27:31;5.30;1.00
3023;DHT22;1521;53.584;9.938;2023-04-25T04:29:57;5.30;1.00
3023;DHT22;1521;53.584;9.938;2023-04-25T04:32:23;5.30;1.00
3023;DHT22;1521;53.584;9.938;2023-04-25T04:34:49;5.30;1.00
3023;DHT22;1521;53.584;9.938;2023-04-25T04:37:14;5.30;1.00
3023;DHT22;1521;53.584;9.938;2023-04-25T04:39:40;5.30;1.00
3023;DHT22;1521;53.584;9.938;2023-04-25T04:42:06;5.30;1.00
3023;DHT22;1521;53.584;9.938;2023-04-25T04:44:32;5.40;1.00
3023;DHT22;1521;53.584;9.938;2023-04-25T04:46:58;5.40;1.00
3023;DHT22;1521;53.584;9.938;2023-04-25T04:49:24;5.50;1.00
3023;DHT22;1521;53.584;9.938;2023-04-25T04:51:49;5.60;1.00
3023;DHT22;1521;53.584;9.938;2023-04-25T04:54:15;5.60;1.00
3023;DHT22;1521;53.584;9.938;2023-04-25T04:56:41;5.70;1.00
3023;DHT22;1521;53.584;9.938;2023-04-25T04:59:07;5.70;1.00
3023;DHT22;1521;53.584;9.938;2023-04-25T05:01:33;5.80;1.00
3023;DHT22;1521;53.584;9.938;2023-04-25T05:04:00;5.80;1.00
3023;DHT22;1521;53.584;9.938;2023-04-25T05:06:27;5.80;1.00
3023;DHT22;1521;53.584;9.938;2023-04-25T05:08:54;6.10;1.00
3023;DHT22;1521;53.584;9.938;2023-04-25T05:11:19;5.90;1.00
3023;DHT22;1521;53.584;9.938;2023-04-25T05:13:46;5.90;1.00
3023;DHT22;1521;53.584;9.938;2023-04-25T05:16:12;5.80;1.00
3023;DHT22;1521;53.584;9.938;2023-04-25T05:18:39;5.80;1.00
3023;DHT22;1521;53.584;9.938;2023-04-25T05:21:05;5.70;1.00
3023;DHT22;1521;53.584;9.938;2023-04-25T05:23:32;5.80;1.00
3023;DHT22;1521;53.584;9.938;2023-04-25T05:25:58;5.80;1.00
3023;DHT22;1521;53.584;9.938;2023-04-25T05:28:24;5.80;1.00
3023;DHT22;1521;53.584;9.938;2023-04-25T05:30:49;5.80;1.00
3023;DHT22;1521;53.584;9.938;2023-04-25T05:33:15;5.90;1.00
3023;DHT22;1521;53.584;9.938;2023-04-25T05:35:41;6.00;1.00
3023;DHT22;1521;53.584;9.938;2023-04-25T05:38:06;6.10;1.00
3023;DHT22;1521;53.584;9.938;2023-04-25T05:40:32;6.10;1.00
3023;DHT22;1521;53.584;9.938;2023-04-25T05:42:58;6.10;1.00
3023;DHT22;1521;53.584;9.938;2023-04-25T05:45:23;6.20;1.00
3023;DHT22;1521;53.584;9.938;2023-04-25T05:47:49;6.30;1.00
3023;DHT22;1521;53.584;9.938;2023-04-25T05:50:15;6.30;1.00
3023;DHT22;1521;53.584;9.938;2023-04-25T05:52:40;6.30;1.00
3023;DHT22;1521;53.584;9.938;2023-04-25T05:55:06;6.40;1.00
3023;DHT22;1521;53.584;9.938;2023-04-25T05:57:32;6.50;1.00
3023;DHT22;1521;53.584;9.938;2023-04-25T05:59:57;6.60;1.00
3023;DHT22;1521;53.584;9.938;2023-04-25T06:02:23;6.70;1.00
3023;DHT22;1521;53.584;9.938;2023-04-25T06:04:50;6.70;1.00
3023;DHT22;1521;53.584;9.938;2023-04-25T06:07:16;6.80;1.00
3023;DHT22;1521;53.584;9.938;2023-04-25T06:09:43;6.80;1.00
3023;DHT22;1521;53.584;9.938;2023-04-25T06:12:08;6.80;1.00
3023;DHT22;1521;53.584;9.938;2023-04-25T06:14:34;6.90;1.00
3023;DHT22;1521;53.584;9.938;2023-04-25T06:16:59;6.80;1.00
3023;DHT22;1521;53.584;9.938;2023-04-25T06:19:40;6.80;1.00
3023;DHT22;1521;53.584;9.938;2023-04-25T06:22:07;6.80;1.00
3023;DHT22;1521;53.584;9.938;2023-04-25T06:24:34;6.80;1.00
3023;DHT22;1521;53.584;9.938;2023-04-25T06:27:00;6.80;1.00
3023;DHT22;1521;53.584;9.938;2023-04-25T06:29:26;6.80;1.00
3023;DHT22;1521;53.584;9.938;2023-04-25T06:31:52;6.90;1.00
3023;DHT22;1521;53.584;9.938;2023-04-25T06:34:17;6.90;1.00
3023;DHT22;1521;53.584;9.938;2023-04-25T06:36:43;6.90;1.00
3023;DHT22;1521;53.584;9.938;2023-04-25T06:39:09;6.80;1.00
3023;DHT22;1521;53.584;9.938;2023-04-25T06:41:36;6.90;1.00
3023;DHT22;1521;53.584;9.938;2023-04-25T06:44:01;7.00;1.00
3023;DHT22;1521;53.584;9.938;2023-04-25T06:46:27;7.10;1.00
3023;DHT22;1521;53.584;9.938;2023-04-25T06:48:52;7.20;1.00
3023;DHT22;1521;53.584;9.938;2023-04-25T06:51:18;7.30;1.00
3023;DHT22;1521;53.584;9.938;2023-04-25T06:53:43;7.50;1.00
3023;DHT22;1521;53.584;9.938;2023-04-25T06:56:09;7.60;1.00
3023;DHT22;1521;53.584;9.938;2023-04-25T06:58:35;7.80;1.00
3023;DHT22;1521;53.584;9.938;2023-04-25T07:01:00;7.90;1.00
3023;DHT22;1521;53.584;9.938;2023-04-25T07:03:26;8.00;1.00
3023;DHT22;1521;53.584;9.938;2023-04-25T07:05:52;8.20;1.00
3023;DHT22;1521;53.584;9.938;2023-04-25T07:08:17;8.30;1.00
3023;DHT22;1521;53.584;9.938;2023-04-25T07:10:43;8.30;1.00
3023;DHT22;1521;53.584;9.938;2023-04-25T07:13:08;8.20;1.00
3023;DHT22;1521;53.584;9.938;2023-04-25T07:15:35;8.20;1.00
3023;DHT22;1521;53.584;9.938;2023-04-25T07:18:00;8.30;1.00
3023;DHT22;1521;53.584;9.938;2023-04-25T07:20:26;8.20;1.00
3023;DHT22;1521;53.584;9.938;2023-04-25T07:22:53;8.10;1.00
3023;DHT22;1521;53.584;9.938;2023-04-25T07:25:19;8.00;1.00
3023;DHT22;1521;53.584;9.938;2023-04-25T07:27:44;7.90;1.00
3023;DHT22;1521;53.584;9.938;2023-04-25T07:30:10;7.70;1.00
3023;DHT22;1521;53.584;9.938;2023-04-25T07:32:36;7.60;1.00
3023;DHT22;1521;53.584;9.938;2023-04-25T07:35:02;7.50;1.00
3023;DHT22;1521;53.584;9.938;2023-04-25T07:37:28;7.50;1.00
3023;DHT22;1521;53.584;9.938;2023-04-25T07:39:54;7.60;1.00
3023;DHT22;1521;53.584;9.938;2023-04-25T07:42:20;7.90;1.00
3023;DHT22;1521;53.584;9.938;2023-04-25T07:44:46;8.10;1.00
3023;DHT22;1521;53.584;9.938;2023-04-25T07:47:12;8.20;1.00
3023;DHT22;1521;53.584;9.938;2023-04-25T07:49:38;8.30;1.00
3023;DHT22;1521;53.584;9.938;2023-04-25T07:52:05;8.60;1.00
3023;DHT22;1521;53.584;9.938;2023-04-25T07:54:31;9.00;1.00
3023;DHT22;1521;53.584;9.938;2023-04-25T07:56:57;9.30;1.00
3023;DHT22;1521;53.584;9.938;2023-04-25T07:59:23;9.50;1.00
3023;DHT22;1521;53.584;9.938;2023-04-25T08:01:49;9.50;1.00
3023;DHT22;1521;53.584;9.938;2023-04-25T08:04:14;9.60;1.00
3023;DHT22;1521;53.584;9.938;2023-04-25T08:06:40;9.40;1.00
3023;DHT22;1521;53.584;9.938;2023-04-25T08:09:06;9.30;1.00
3023;DHT22;1521;53.584;9.938;2023-04-25T08:11:32;9.30;1.00
3023;DHT22;1521;53.584;9.938;2023-04-25T08:13:57;9.20;1.00
3023;DHT22;1521;53.584;9.938;2023-04-25T08:16:23;9.10;1.00
3023;DHT22;1521;53.584;9.938;2023-04-25T08:18:50;9.10;1.00
3023;DHT22;1521;53.584;9.938;2023-04-25T08:21:15;9.00;1.00
3023;DHT22;1521;53.584;9.938;2023-04-25T08:23:41;9.00;1.00
3023;DHT22;1521;53.584;9.938;2023-04-25T08:26:06;8.80;1.00
3023;DHT22;1521;53.584;9.938;2023-04-25T08:28:32;9.10;1.00
3023;DHT22;1521;53.584;9.938;2023-04-25T08:30:58;9.70;1.00
3023;DHT22;1521;53.584;9.938;2023-04-25T08:33:23;10.20;1.00
3023;DHT22;1521;53.584;9.938;2023-04-25T08:35:49;10.30;1.00
3023;DHT22;1521;53.584;9.938;2023-04-25T08:38:15;9.90;1.00
3023;DHT22;1521;53.584;9.938;2023-04-25T08:40:41;9.50;1.00
3023;DHT22;1521;53.584;9.938;2023-04-25T08:43:07;9.30;1.00
3023;DHT22;1521;53.584;9.938;2023-04-25T08:45:39;9.50;1.00
3023;DHT22;1521;53.584;9.938;2023-04-25T08:48:12;9.80;1.00
3023;DHT22;1521;53.584;9.938;2023-04-25T08:50:52;10.20;1.00
3023;DHT22;1521;53.584;9.938;2023-04-25T08:53:36;10.10;1.00
3023;DHT22;1521;53.584;9.938;2023-04-25T08:56:02;10.00;1.00
3023;DHT22;1521;53.584;9.938;2023-04-25T08:58:28;9.80;1.00
3023;DHT22;1521;53.584;9.938;2023-04-25T09:00:54;9.90;1.00
3023;DHT22;1521;53.584;9.938;2023-04-25T09:03:19;10.10;1.00
3023;DHT22;1521;53.584;9.938;2023-04-25T09:05:45;10.30;1.00
3023;DHT22;1521;53.584;9.938;2023-04-25T09:08:11;10.10;1.00
3023;DHT22;1521;53.584;9.938;2023-04-25T09:10:37;9.60;1.00
3023;DHT22;1521;53.584;9.938;2023-04-25T09:15:52;9.10;1.00
3023;DHT22;1521;53.584;9.938;2023-04-25T09:18:29;9.10;1.00
3023;DHT22;1521;53.584;9.938;2023-04-25T09:20:57;9.00;1.00
3023;DHT22;1521;53.584;9.938;2023-04-25T09:23:23;9.00;1.00
3023;DHT22;1521;53.584;9.938;2023-04-25T09:25:50;9.10;1.00
3023;DHT22;1521;53.584;9.938;2023-04-25T09:28:16;9.50;1.00
3023;DHT22;1521;53.584;9.938;2023-04-25T09:30:47;9.90;1.00
3023;DHT22;1521;53.584;9.938;2023-04-25T09:33:13;10.10;1.00
3023;DHT22;1521;53.584;9.938;2023-04-25T09:35:42;10.40;1.00
3023;DHT22;1521;53.584;9.938;2023-04-25T09:38:11;10.50;1.00
3023;DHT22;1521;53.584;9.938;2023-04-25T09:40:45;9.50;1.00
3023;DHT22;1521;53.584;9.938;2023-04-25T09:45:44;8.20;1.00
3023;DHT22;1521;53.584;9.938;2023-04-25T09:48:22;8.20;1.00
3023;DHT22;1521;53.584;9.938;2023-04-25T09:53:30;8.90;1.00
3023;DHT22;1521;53.584;9.938;2023-04-25T09:56:00;9.30;1.00
3023;DHT22;1521;53.584;9.938;2023-04-25T09:58:29;9.60;1.00
3023;DHT22;1521;53.584;9.938;2023-04-25T10:00:59;9.90;1.00
3023;DHT22;1521;53.584;9.938;2023-04-25T10:03:25;10.00;1.00
3023;DHT22;1521;53.584;9.938;2023-04-25T10:05:52;10.00;1.00
3023;DHT22;1521;53.584;9.938;2023-04-25T10:08:19;10.20;1.00
3023;DHT22;1521;53.584;9.938;2023-04-25T10:10:46;10.80;1.00
3023;DHT22;1521;53.584;9.938;2023-04-25T10:13:12;11.20;1.00
3023;DHT22;1521;53.584;9.938;2023-04-25T10:15:40;11.80;1.00
3023;DHT22;1521;53.584;9.938;2023-04-25T10:18:07;11.80;1.00
3023;DHT22;1521;53.584;9.938;2023-04-25T10:20:33;11.10;1.00
3023;DHT22;1521;53.584;9.938;2023-04-25T10:23:06;10.60;1.00
3023;DHT22;1521;53.584;9.938;2023-04-25T10:25:33;10.10;1.00
3023;DHT22;1521;53.584;9.938;2023-04-25T10:28:00;10.00;1.00
3023;DHT22;1521;53.584;9.938;2023-04-25T10:30:27;10.40;1.00
3023;DHT22;1521;53.584;9.938;2023-04-25T10:32:55;10.90;1.00
3023;DHT22;1521;53.584;9.938;2023-04-25T10:35:28;11.40;1.00
3023;DHT22;1521;53.584;9.938;2023-04-25T10:37:59;11.80;1.00
3023;DHT22;1521;53.584;9.938;2023-04-25T10:40:26;12.00;1.00
3023;DHT22;1521;53.584;9.938;2023-04-25T10:42:53;11.90;1.00
3023;DHT22;1521;53.584;9.938;2023-04-25T10:45:22;12.40;1.00
3023;DHT22;1521;53.584;9.938;2023-04-25T10:47:47;13.10;1.00
3023;DHT22;1521;53.584;9.938;2023-04-25T10:50:16;13.20;1.00
3023;DHT22;1521;53.584;9.938;2023-04-25T10:52:42;13.20;1.00
3023;DHT22;1521;53.584;9.938;2023-04-25T10:55:08;12.10;1.00
3023;DHT22;1521;53.584;9.938;2023-04-25T11:00:19;11.20;1.00
3023;DHT22;1521;53.584;9.938;2023-04-25T11:02:58;10.60;1.00
3023;DHT22;1521;53.584;9.938;2023-04-25T11:05:33;10.50;1.00
3023;DHT22;1521;53.584;9.938;2023-04-25T11:07:59;11.00;1.00
3023;DHT22;1521;53.584;9.938;2023-04-25T11:10:29;11.60;1.00
3023;DHT22;1521;53.584;9.938;2023-04-25T11:12:56;11.80;1.00
3023;DHT22;1521;53.584;9.938;2023-04-25T11:15:22;12.00;1.00
3023;DHT22;1521;53.584;9.938;2023-04-25T11:17:48;12.70;1.00
3023;DHT22;1521;53.584;9.938;2023-04-25T11:20:14;12.80;1.00
3023;DHT22;1521;53.584;9.938;2023-04-25T11:22:41;13.00;1.00
3023;DHT22;1521;53.584;9.938;2023-04-25T11:25:10;13.30;1.00
3023;DHT22;1521;53.584;9.938;2023-04-25T11:28:02;12.90;1.00
3023;DHT22;1521;53.584;9.938;2023-04-25T11:30:28;13.10;1.00
3023;DHT22;1521;53.584;9.938;2023-04-25T11:32:56;12.70;1.00
3023;DHT22;1521;53.584;9.938;2023-04-25T11:35:21;11.00;1.00
3023;DHT22;1521;53.584;9.938;2023-04-25T11:37:51;9.90;1.00
3023;DHT22;1521;53.584;9.938;2023-04-25T11:40:17;9.50;1.00
3023;DHT22;1521;53.584;9.938;2023-04-25T11:42:47;9.10;1.00
3023;DHT22;1521;53.584;9.938;2023-04-25T11:45:14;9.20;1.00
3023;DHT22;1521;53.584;9.938;2023-04-25T11:47:40;10.40;1.00
3023;DHT22;1521;53.584;9.938;2023-04-25T11:50:07;12.00;1.00
3023;DHT22;1521;53.584;9.938;2023-04-25T11:55:04;14.00;1.00
3023;DHT22;1521;53.584;9.938;2023-04-25T11:57:32;14.70;1.00
3023;DHT22;1521;53.584;9.938;2023-04-25T12:02:44;16.00;1.00
3023;DHT22;1521;53.584;9.938;2023-04-25T12:05:11;15.80;1.00
3023;DHT22;1521;53.584;9.938;2023-04-25T12:07:37;15.10;1.00
3023;DHT22;1521;53.584;9.938;2023-04-25T12:10:11;14.50;1.00
3023;DHT22;1521;53.584;9.938;2023-04-25T12:12:38;13.90;1.00
3023;DHT22;1521;53.584;9.938;2023-04-25T12:15:10;13.40;1.00
3023;DHT22;1521;53.584;9.938;2023-04-25T12:17:37;12.40;1.00
3023;DHT22;1521;53.584;9.938;2023-04-25T12:20:12;11.60;1.00
3023;DHT22;1521;53.584;9.938;2023-04-25T12:22:37;11.90;1.00
3023;DHT22;1521;53.584;9.938;2023-04-25T12:25:06;12.20;1.00
3023;DHT22;1521;53.584;9.938;2023-04-25T12:27:32;12.90;1.00
3023;DHT22;1521;53.584;9.938;2023-04-25T12:29:59;13.30;1.00
3023;DHT22;1521;53.584;9.938;2023-04-25T12:32:24;13.80;1.00
3023;DHT22;1521;53.584;9.938;2023-04-25T12:34:51;13.90;1.00
3023;DHT22;1521;53.584;9.938;2023-04-25T12:37:17;13.70;1.00
3023;DHT22;1521;53.584;9.938;2023-04-25T12:39:42;13.60;1.00
3023;DHT22;1521;53.584;9.938;2023-04-25T12:42:08;13.20;1.00
3023;DHT22;1521;53.584;9.938;2023-04-25T12:44:37;12.40;1.00
3023;DHT22;1521;53.584;9.938;2023-04-25T12:47:03;11.70;1.00
3023;DHT22;1521;53.584;9.938;2023-04-25T12:49:28;12.00;1.00
3023;DHT22;1521;53.584;9.938;2023-04-25T12:51:54;11.60;1.00
3023;DHT22;1521;53.584;9.938;2023-04-25T12:54:19;11.70;1.00
3023;DHT22;1521;53.584;9.938;2023-04-25T12:56:45;11.70;1.00
3023;DHT22;1521;53.584;9.938;2023-04-25T12:59:11;12.10;1.00
3023;DHT22;1521;53.584;9.938;2023-04-25T13:01:37;12.60;1.00
3023;DHT22;1521;53.584;9.938;2023-04-25T13:04:03;13.20;1.00
3023;DHT22;1521;53.584;9.938;2023-04-25T13:06:28;13.70;1.00
3023;DHT22;1521;53.584;9.938;2023-04-25T13:08:56;13.90;1.00
3023;DHT22;1521;53.584;9.938;2023-04-25T13:11:21;13.50;1.00
3023;DHT22;1521;53.584;9.938;2023-04-25T13:13:47;12.80;1.00
3023;DHT22;1521;53.584;9.938;2023-04-25T13:16:13;11.80;1.00
3023;DHT22;1521;53.584;9.938;2023-04-25T13:18:41;10.60;1.00
3023;DHT22;1521;53.584;9.938;2023-04-25T13:21:09;9.60;1.00
3023;DHT22;1521;53.584;9.938;2023-04-25T13:23:36;8.80;1.00
3023;DHT22;1521;53.584;9.938;2023-04-25T13:26:01;8.20;1.00
3023;DHT22;1521;53.584;9.938;2023-04-25T13:28:27;8.00;1.00
3023;DHT22;1521;53.584;9.938;2023-04-25T13:30:53;8.10;1.00
3023;DHT22;1521;53.584;9.938;2023-04-25T13:33:20;8.20;1.00
3023;DHT22;1521;53.584;9.938;2023-04-25T13:35:47;8.90;1.00
3023;DHT22;1521;53.584;9.938;2023-04-25T13:38:22;10.10;1.00
3023;DHT22;1521;53.584;9.938;2023-04-25T13:40:48;11.10;1.00
3023;DHT22;1521;53.584;9.938;2023-04-25T13:43:14;12.00;1.00
3023;DHT22;1521;53.584;9.938;2023-04-25T13:45:40;12.50;1.00
3023;DHT22;1521;53.584;9.938;2023-04-25T13:48:06;11.80;1.00
3023;DHT22;1521;53.584;9.938;2023-04-25T13:50:31;10.60;1.00
3023;DHT22;1521;53.584;9.938;2023-04-25T13:52:57;9.40;1.00
3023;DHT22;1521;53.584;9.938;2023-04-25T13:55:23;8.30;1.00
3023;DHT22;1521;53.584;9.938;2023-04-25T13:57:48;7.70;1.00
3023;DHT22;1521;53.584;9.938;2023-04-25T14:00:14;7.50;1.00
3023;DHT22;1521;53.584;9.938;2023-04-25T14:02:40;7.40;1.00
3023;DHT22;1521;53.584;9.938;2023-04-25T14:05:06;7.30;1.00
3023;DHT22;1521;53.584;9.938;2023-04-25T14:07:33;7.40;1.00
3023;DHT22;1521;53.584;9.938;2023-04-25T14:10:00;7.60;1.00
3023;DHT22;1521;53.584;9.938;2023-04-25T14:12:26;7.80;1.00
3023;DHT22;1521;53.584;9.938;2023-04-25T14:14:52;8.30;1.00
3023;DHT22;1521;53.584;9.938;2023-04-25T14:17:19;9.10;1.00
3023;DHT22;1521;53.584;9.938;2023-04-25T14:19:44;10.10;1.00
3023;DHT22;1521;53.584;9.938;2023-04-25T14:22:11;10.90;1.00
3023;DHT22;1521;53.584;9.938;2023-04-25T14:24:37;11.40;1.00
3023;DHT22;1521;53.584;9.938;2023-04-25T14:27:03;11.00;1.00
3023;DHT22;1521;53.584;9.938;2023-04-25T14:29:29;10.30;1.00
3023;DHT22;1521;53.584;9.938;2023-04-25T14:31:55;9.40;1.00
3023;DHT22;1521;53.584;9.938;2023-04-25T14:34:22;9.10;1.00
3023;DHT22;1521;53.584;9.938;2023-04-25T14:36:48;9.10;1.00
3023;DHT22;1521;53.584;9.938;2023-04-25T14:39:14;9.30;1.00
3023;DHT22;1521;53.584;9.938;2023-04-25T14:41:40;9.20;1.00
3023;DHT22;1521;53.584;9.938;2023-04-25T14:44:05;9.40;1.00
3023;DHT22;1521;53.584;9.938;2023-04-25T14:46:31;9.40;1.00
3023;DHT22;1521;53.584;9.938;2023-04-25T14:48:57;9.30;1.00
3023;DHT22;1521;53.584;9.938;2023-04-25T14:51:23;9.20;1.00
3023;DHT22;1521;53.584;9.938;2023-04-25T14:53:48;9.60;1.00
3023;DHT22;1521;53.584;9.938;2023-04-25T14:56:14;10.10;1.00
3023;DHT22;1521;53.584;9.938;2023-04-25T14:58:39;11.00;1.00
3023;DHT22;1521;53.584;9.938;2023-04-25T15:01:05;11.20;1.00
3023;DHT22;1521;53.584;9.938;2023-04-25T15:03:32;10.50;1.00
3023;DHT22;1521;53.584;9.938;2023-04-25T15:05:58;10.20;1.00
3023;DHT22;1521;53.584;9.938;2023-04-25T15:08:23;9.50;1.00
3023;DHT22;1521;53.584;9.938;2023-04-25T15:10:49;9.50;1.00
3023;DHT22;1521;53.584;9.938;2023-04-25T15:13:17;9.70;1.00
3023;DHT22;1521;53.584;9.938;2023-04-25T15:15:42;10.10;1.00
3023;DHT22;1521;53.584;9.938;2023-04-25T15:18:08;10.30;1.00
3023;DHT22;1521;53.584;9.938;2023-04-25T15:20:34;10.80;1.00
3023;DHT22;1521;53.584;9.938;2023-04-25T15:23:00;11.30;1.00
3023;DHT22;1521;53.584;9.938;2023-04-25T15:25:28;11.90;1.00
3023;DHT22;1521;53.584;9.938;2023-04-25T15:27:54;12.10;1.00
3023;DHT22;1521;53.584;9.938;2023-04-25T15:30:20;11.70;1.00
3023;DHT22;1521;53.584;9.938;2023-04-25T15:32:46;11.40;1.00
3023;DHT22;1521;53.584;9.938;2023-04-25T15:35:13;10.90;1.00
3023;DHT22;1521;53.584;9.938;2023-04-25T15:37:40;10.80;1.00
3023;DHT22;1521;53.584;9.938;2023-04-25T15:40:13;11.10;1.00
3023;DHT22;1521;53.584;9.938;2023-04-25T15:42:41;11.10;1.00
3023;DHT22;1521;53.584;9.938;2023-04-25T15:45:09;11.20;1.00
3023;DHT22;1521;53.584;9.938;2023-04-25T15:47:35;10.80;1.00
3023;DHT22;1521;53.584;9.938;2023-04-25T15:50:03;10.80;1.00
3023;DHT22;1521;53.584;9.938;2023-04-25T15:52:31;10.90;1.00
3023;DHT22;1521;53.584;9.938;2023-04-25T15:54:56;11.10;1.00
3023;DHT22;1521;53.584;9.938;2023-04-25T15:57:22;11.00;1.00
3023;DHT22;1521;53.584;9.938;2023-04-25T15:59:49;10.90;1.00
3023;DHT22;1521;53.584;9.938;2023-04-25T16:02:16;10.80;1.00
3023;DHT22;1521;53.584;9.938;2023-04-25T16:04:42;10.50;1.00
3023;DHT22;1521;53.584;9.938;2023-04-25T16:07:08;10.30;1.00
3023;DHT22;1521;53.584;9.938;2023-04-25T16:09:37;9.80;1.00
3023;DHT22;1521;53.584;9.938;2023-04-25T16:12:03;9.60;1.00
3023;DHT22;1521;53.584;9.938;2023-04-25T16:14:29;9.60;1.00
3023;DHT22;1521;53.584;9.938;2023-04-25T16:16:55;9.50;1.00
3023;DHT22;1521;53.584;9.938;2023-04-25T16:19:21;9.50;1.00
3023;DHT22;1521;53.584;9.938;2023-04-25T16:21:47;9.40;1.00
3023;DHT22;1521;53.584;9.938;2023-04-25T16:24:12;9.30;1.00
3023;DHT22;1521;53.584;9.938;2023-04-25T16:26:38;9.10;1.00
3023;DHT22;1521;53.584;9.938;2023-04-25T16:29:06;8.80;1.00
3023;DHT22;1521;53.584;9.938;2023-04-25T16:31:33;8.70;1.00
3023;DHT22;1521;53.584;9.938;2023-04-25T16:33:59;8.70;1.00
3023;DHT22;1521;53.584;9.938;2023-04-25T16:36:24;8.70;1.00
3023;DHT22;1521;53.584;9.938;2023-04-25T16:38:51;8.60;1.00